sensor_id;sensor_type;location;lat;lon;timestamp;pressure;altitude;pressure_sealevel;temperature;humidity
70141;BME280;57508;43.086;0.136;2022-09-13T00:00:38;95289.59;;;29.77;44.94
70141;BME280;57508;43.086;0.136;2022-09-13T00:03:05;95284.00;;;29.68;45.11
70141;BME280;57508;43.086;0.136;2022-09-13T00:05:31;95270.91;;;29.42;46.34
70141;BME280;57508;43.086;0.136;2022-09-13T00:07:56;95265.72;;;29.48;45.92
70141;BME280;57508;43.086;0.136;2022-09-13T00:10:22;95270.13;;;29.42;45.99
70141;BME280;57508;43.086;0.136;2022-09-13T00:12:48;95270.69;;;28.96;46.64
70141;BME280;57508;43.086;0.136;2022-09-13T00:15:14;95259.22;;;28.64;46.55
70141;BME280;57508;43.086;0.136;2022-09-13T00:17:40;95254.41;;;28.28;47.94
70141;BME280;57508;43.086;0.136;2022-09-13T00:20:06;95256.28;;;29.16;45.90
70141;BME280;57508;43.086;0.136;2022-09-13T00:22:31;95246.81;;;29.41;45.23
70141;BME280;57508;43.086;0.136;2022-09-13T00:24:57;95255.38;;;28.62;46.76
70141;BME280;57508;43.086;0.136;2022-09-13T00:27:23;95261.09;;;29.28;45.78
70141;BME280;57508;43.086;0.136;2022-09-13T00:29:48;95254.66;;;29.02;45.61
70141;BME280;57508;43.086;0.136;2022-09-13T00:32:14;95259.41;;;29.35;45.21
70141;BME280;57508;43.086;0.136;2022-09-13T00:34:39;95265.38;;;29.09;44.65
70141;BME280;57508;43.086;0.136;2022-09-13T00:37:04;95268.31;;;29.56;44.26
70141;BME280;57508;43.086;0.136;2022-09-13T00:39:30;95274.72;;;29.45;44.34
70141;BME280;57508;43.086;0.136;2022-09-13T00:41:55;95259.56;;;28.66;45.19
70141;BME280;57508;43.086;0.136;2022-09-13T00:47:09;95264.41;;;29.20;44.69
70141;BME280;57508;43.086;0.136;2022-09-13T00:49:38;95265.09;;;29.61;43.17
70141;BME280;57508;43.086;0.136;2022-09-13T00:52:09;95253.38;;;29.64;43.62
70141;BME280;57508;43.086;0.136;2022-09-13T00:54:45;95260.66;;;29.67;42.85
70141;BME280;57508;43.086;0.136;2022-09-13T00:57:16;95265.38;;;29.83;42.95
70141;BME280;57508;43.086;0.136;2022-09-13T00:59:46;95261.53;;;29.64;41.58
70141;BME280;57508;43.086;0.136;2022-09-13T01:02:13;95258.47;;;29.78;41.64
70141;BME280;57508;43.086;0.136;2022-09-13T01:04:39;95251.78;;;29.46;42.48
70141;BME280;57508;43.086;0.136;2022-09-13T01:07:10;95244.94;;;30.08;42.77
70141;BME280;57508;43.086;0.136;2022-09-13T01:09:38;95247.13;;;29.97;41.67
70141;BME280;57508;43.086;0.136;2022-09-13T01:12:24;95236.94;;;30.17;42.58
70141;BME280;57508;43.086;0.136;2022-09-13T01:14:51;95239.91;;;30.07;42.23
70141;BME280;57508;43.086;0.136;2022-09-13T01:17:17;95233.53;;;30.30;43.63
70141;BME280;57508;43.086;0.136;2022-09-13T01:19:43;95227.56;;;29.69;42.81
70141;BME280;57508;43.086;0.136;2022-09-13T01:31:39;95215.25;;;29.64;43.26
70141;BME280;57508;43.086;0.136;2022-09-13T01:48:11;95190.56;;;28.81;44.65
70141;BME280;57508;43.086;0.136;2022-09-13T01:53:24;95193.50;;;29.44;44.68
70141;BME280;57508;43.086;0.136;2022-09-13T01:56:19;95201.56;;;29.14;43.71
70141;BME280;57508;43.086;0.136;2022-09-13T01:58:53;95186.88;;;28.71;43.86
70141;BME280;57508;43.086;0.136;2022-09-13T02:03:59;95186.56;;;28.85;44.79
70141;BME280;57508;43.086;0.136;2022-09-13T02:06:34;95187.63;;;28.31;45.77
70141;BME280;57508;43.086;0.136;2022-09-13T02:09:15;95181.38;;;28.34;45.65
70141;BME280;57508;43.086;0.136;2022-09-13T02:11:47;95183.00;;;28.27;44.68
70141;BME280;57508;43.086;0.136;2022-09-13T02:14:24;95183.88;;;27.76;46.69
70141;BME280;57508;43.086;0.136;2022-09-13T02:17:06;95166.34;;;27.53;46.78
70141;BME280;57508;43.086;0.136;2022-09-13T02:19:46;95171.44;;;27.51;47.27
70141;BME280;57508;43.086;0.136;2022-09-13T02:22:17;95166.81;;;28.20;46.07
70141;BME280;57508;43.086;0.136;2022-09-13T02:24:47;95158.34;;;28.18;45.38
70141;BME280;57508;43.086;0.136;2022-09-13T02:27:19;95151.38;;;28.17;44.21
70141;BME280;57508;43.086;0.136;2022-09-13T02:29:49;95157.91;;;27.48;46.53
70141;BME280;57508;43.086;0.136;2022-09-13T02:32:21;95150.00;;;28.49;44.37
70141;BME280;57508;43.086;0.136;2022-09-13T02:34:59;95144.63;;;27.81;46.66
70141;BME280;57508;43.086;0.136;2022-09-13T02:37:28;95130.34;;;27.77;45.93
70141;BME280;57508;43.086;0.136;2022-09-13T02:40:03;95134.72;;;28.15;45.99
70141;BME280;57508;43.086;0.136;2022-09-13T02:42:33;95132.31;;;28.41;44.68
70141;BME280;57508;43.086;0.136;2022-09-13T02:45:01;95134.59;;;28.63;43.57
70141;BME280;57508;43.086;0.136;2022-09-13T02:56:21;95139.38;;;27.94;45.50
70141;BME280;57508;43.086;0.136;2022-09-13T03:01:23;95140.72;;;28.06;45.02
70141;BME280;57508;43.086;0.136;2022-09-13T03:03:51;95131.78;;;28.06;43.77
70141;BME280;57508;43.086;0.136;2022-09-13T03:06:25;95133.28;;;28.71;44.04
70141;BME280;57508;43.086;0.136;2022-09-13T03:08:52;95125.13;;;28.51;42.51
70141;BME280;57508;43.086;0.136;2022-09-13T03:11:44;95130.22;;;28.69;43.25
70141;BME280;57508;43.086;0.136;2022-09-13T03:14:51;95133.13;;;28.18;44.41
70141;BME280;57508;43.086;0.136;2022-09-13T03:17:31;95137.09;;;27.41;45.99
70141;BME280;57508;43.086;0.136;2022-09-13T03:20:24;95137.81;;;26.90;47.07
70141;BME280;57508;43.086;0.136;2022-09-13T03:26:22;95133.69;;;28.09;44.84
70141;BME280;57508;43.086;0.136;2022-09-13T03:32:08;95125.31;;;27.99;43.40
70141;BME280;57508;43.086;0.136;2022-09-13T03:34:49;95132.03;;;28.15;43.81
70141;BME280;57508;43.086;0.136;2022-09-13T03:39:59;95152.31;;;28.51;42.96
70141;BME280;57508;43.086;0.136;2022-09-13T03:45:05;95173.56;;;28.36;43.53
70141;BME280;57508;43.086;0.136;2022-09-13T03:47:34;95168.00;;;28.43;42.76
70141;BME280;57508;43.086;0.136;2022-09-13T03:50:01;95169.31;;;28.96;41.63
70141;BME280;57508;43.086;0.136;2022-09-13T03:52:27;95180.38;;;29.05;41.26
70141;BME280;57508;43.086;0.136;2022-09-13T03:54:53;95185.25;;;28.73;42.42
70141;BME280;57508;43.086;0.136;2022-09-13T03:57:20;95170.03;;;28.15;42.73
70141;BME280;57508;43.086;0.136;2022-09-13T03:59:51;95159.56;;;29.15;41.19
70141;BME280;57508;43.086;0.136;2022-09-13T04:02:18;95163.00;;;29.36;40.74
70141;BME280;57508;43.086;0.136;2022-09-13T04:04:45;95165.53;;;29.26;40.68
70141;BME280;57508;43.086;0.136;2022-09-13T04:07:13;95160.44;;;29.28;40.49
70141;BME280;57508;43.086;0.136;2022-09-13T04:09:39;95161.75;;;29.03;40.98
70141;BME280;57508;43.086;0.136;2022-09-13T04:12:05;95151.63;;;28.02;43.73
70141;BME280;57508;43.086;0.136;2022-09-13T04:14:31;95138.69;;;28.34;42.84
70141;BME280;57508;43.086;0.136;2022-09-13T04:16:57;95135.41;;;29.17;41.10
70141;BME280;57508;43.086;0.136;2022-09-13T04:19:24;95141.28;;;29.32;41.38
70141;BME280;57508;43.086;0.136;2022-09-13T04:21:51;95136.97;;;29.18;40.80
70141;BME280;57508;43.086;0.136;2022-09-13T04:24:17;95126.09;;;29.18;40.17
70141;BME280;57508;43.086;0.136;2022-09-13T04:26:44;95118.72;;;28.00;43.44
70141;BME280;57508;43.086;0.136;2022-09-13T04:29:12;95110.78;;;27.86;44.00
70141;BME280;57508;43.086;0.136;2022-09-13T04:31:37;95104.06;;;28.55;42.39
70141;BME280;57508;43.086;0.136;2022-09-13T04:34:03;95111.34;;;28.42;43.04
70141;BME280;57508;43.086;0.136;2022-09-13T04:36:31;95106.25;;;28.23;42.97
70141;BME280;57508;43.086;0.136;2022-09-13T04:38:56;95097.75;;;28.62;41.66
70141;BME280;57508;43.086;0.136;2022-09-13T04:41:24;95084.72;;;28.90;41.75
70141;BME280;57508;43.086;0.136;2022-09-13T04:43:49;95069.19;;;29.07;41.30
70141;BME280;57508;43.086;0.136;2022-09-13T04:46:15;95060.25;;;29.07;40.16
70141;BME280;57508;43.086;0.136;2022-09-13T04:48:41;95066.38;;;28.94;39.58
70141;BME280;57508;43.086;0.136;2022-09-13T04:51:06;95051.28;;;28.56;39.67
70141;BME280;57508;43.086;0.136;2022-09-13T04:53:32;95058.59;;;28.76;41.24
70141;BME280;57508;43.086;0.136;2022-09-13T04:56:04;95056.13;;;28.82;40.90
70141;BME280;57508;43.086;0.136;2022-09-13T04:58:30;95067.28;;;28.71;41.36
70141;BME280;57508;43.086;0.136;2022-09-13T05:01:04;95055.97;;;28.89;40.48
70141;BME280;57508;43.086;0.136;2022-09-13T05:03:30;95051.09;;;28.06;42.73
70141;BME280;57508;43.086;0.136;2022-09-13T05:06:15;95044.81;;;29.03;41.05
70141;BME280;57508;43.086;0.136;2022-09-13T05:08:49;95059.84;;;29.08;40.83
70141;BME280;57508;43.086;0.136;2022-09-13T05:11:17;95057.41;;;29.14;36.84
70141;BME280;57508;43.086;0.136;2022-09-13T05:13:42;95059.72;;;29.45;35.45
70141;BME280;57508;43.086;0.136;2022-09-13T05:16:08;95062.13;;;29.10;37.91
70141;BME280;57508;43.086;0.136;2022-09-13T05:18:35;95054.31;;;28.95;38.95
70141;BME280;57508;43.086;0.136;2022-09-13T05:21:02;95054.94;;;29.83;38.29
70141;BME280;57508;43.086;0.136;2022-09-13T05:23:29;95056.28;;;30.04;37.25
70141;BME280;57508;43.086;0.136;2022-09-13T05:26:05;95047.09;;;29.38;37.20
70141;BME280;57508;43.086;0.136;2022-09-13T05:28:35;95056.84;;;29.99;36.34
70141;BME280;57508;43.086;0.136;2022-09-13T05:31:06;95062.25;;;29.86;36.61
70141;BME280;57508;43.086;0.136;2022-09-13T05:33:34;95051.81;;;29.97;36.10
70141;BME280;57508;43.086;0.136;2022-09-13T05:36:00;95052.09;;;30.16;36.60
70141;BME280;57508;43.086;0.136;2022-09-13T05:38:26;95050.09;;;29.11;36.62
70141;BME280;57508;43.086;0.136;2022-09-13T05:40:56;95039.72;;;29.69;35.65
70141;BME280;57508;43.086;0.136;2022-09-13T05:43:23;95050.31;;;29.96;35.50
70141;BME280;57508;43.086;0.136;2022-09-13T05:45:49;95043.88;;;29.73;34.73
70141;BME280;57508;43.086;0.136;2022-09-13T05:48:14;95030.28;;;29.73;34.93
70141;BME280;57508;43.086;0.136;2022-09-13T05:50:39;95028.97;;;30.08;34.50
70141;BME280;57508;43.086;0.136;2022-09-13T05:53:05;95024.19;;;30.12;33.74
70141;BME280;57508;43.086;0.136;2022-09-13T05:55:31;95046.59;;;30.46;35.14
70141;BME280;57508;43.086;0.136;2022-09-13T05:57:56;95030.22;;;29.90;35.58
70141;BME280;57508;43.086;0.136;2022-09-13T06:00:22;95024.81;;;30.46;34.40
70141;BME280;57508;43.086;0.136;2022-09-13T06:02:48;95018.28;;;29.71;34.20
70141;BME280;57508;43.086;0.136;2022-09-13T06:05:13;95016.88;;;30.77;33.49
70141;BME280;57508;43.086;0.136;2022-09-13T06:07:40;95021.22;;;31.01;32.51
70141;BME280;57508;43.086;0.136;2022-09-13T06:10:07;95033.22;;;31.03;33.02
70141;BME280;57508;43.086;0.136;2022-09-13T06:12:33;95036.59;;;30.68;33.47
70141;BME280;57508;43.086;0.136;2022-09-13T06:14:58;95027.59;;;29.86;33.67
70141;BME280;57508;43.086;0.136;2022-09-13T06:17:23;95041.59;;;30.44;32.74
70141;BME280;57508;43.086;0.136;2022-09-13T06:19:50;95034.84;;;30.88;33.36
70141;BME280;57508;43.086;0.136;2022-09-13T06:22:15;95033.84;;;31.08;32.30
70141;BME280;57508;43.086;0.136;2022-09-13T06:24:40;95041.66;;;31.31;33.37
70141;BME280;57508;43.086;0.136;2022-09-13T06:27:06;95034.09;;;30.74;33.61
70141;BME280;57508;43.086;0.136;2022-09-13T06:29:32;95036.53;;;31.34;31.91
70141;BME280;57508;43.086;0.136;2022-09-13T06:31:57;95029.41;;;31.49;33.03
70141;BME280;57508;43.086;0.136;2022-09-13T06:34:22;95040.91;;;31.31;31.74
70141;BME280;57508;43.086;0.136;2022-09-13T06:36:48;95035.56;;;31.27;32.04
70141;BME280;57508;43.086;0.136;2022-09-13T06:39:13;95027.84;;;31.61;32.65
70141;BME280;57508;43.086;0.136;2022-09-13T06:41:39;95042.53;;;31.28;33.30
70141;BME280;57508;43.086;0.136;2022-09-13T06:44:04;95045.84;;;31.72;32.27
70141;BME280;57508;43.086;0.136;2022-09-13T06:46:32;95041.16;;;30.46;32.37
70141;BME280;57508;43.086;0.136;2022-09-13T06:48:59;95038.44;;;31.11;33.55
70141;BME280;57508;43.086;0.136;2022-09-13T06:51:25;95043.19;;;31.46;33.86
70141;BME280;57508;43.086;0.136;2022-09-13T06:53:52;95040.09;;;31.92;32.79
70141;BME280;57508;43.086;0.136;2022-09-13T06:56:32;95040.94;;;31.89;33.45
70141;BME280;57508;43.086;0.136;2022-09-13T06:58:59;95034.44;;;31.73;34.64
70141;BME280;57508;43.086;0.136;2022-09-13T07:01:42;95036.00;;;31.74;34.56
70141;BME280;57508;43.086;0.136;2022-09-13T07:04:13;95039.28;;;31.69;34.76
70141;BME280;57508;43.086;0.136;2022-09-13T07:06:42;95021.56;;;31.74;35.11
70141;BME280;57508;43.086;0.136;2022-09-13T07:09:10;95021.34;;;31.33;35.55
70141;BME280;57508;43.086;0.136;2022-09-13T07:11:38;95019.00;;;31.35;35.31
70141;BME280;57508;43.086;0.136;2022-09-13T07:14:05;95002.50;;;31.61;35.40
70141;BME280;57508;43.086;0.136;2022-09-13T07:16:34;95002.19;;;31.10;36.20
70141;BME280;57508;43.086;0.136;2022-09-13T07:19:02;95008.97;;;31.05;36.92
70141;BME280;57508;43.086;0.136;2022-09-13T07:21:30;95001.75;;;31.82;35.10
70141;BME280;57508;43.086;0.136;2022-09-13T07:23:56;95016.56;;;31.37;35.86
70141;BME280;57508;43.086;0.136;2022-09-13T07:26:23;95015.56;;;31.66;35.93
70141;BME280;57508;43.086;0.136;2022-09-13T07:28:51;95012.97;;;31.98;35.40
70141;BME280;57508;43.086;0.136;2022-09-13T07:31:19;95011.44;;;31.97;35.93
70141;BME280;57508;43.086;0.136;2022-09-13T07:33:46;95017.63;;;31.52;36.21
70141;BME280;57508;43.086;0.136;2022-09-13T07:36:13;95014.84;;;31.17;37.31
70141;BME280;57508;43.086;0.136;2022-09-13T07:38:42;95024.84;;;31.46;36.40
70141;BME280;57508;43.086;0.136;2022-09-13T07:41:12;95019.41;;;31.91;35.80
70141;BME280;57508;43.086;0.136;2022-09-13T07:43:38;95025.19;;;32.15;35.71
70141;BME280;57508;43.086;0.136;2022-09-13T07:46:04;95031.47;;;32.25;35.30
70141;BME280;57508;43.086;0.136;2022-09-13T07:48:32;95045.19;;;32.35;36.24
70141;BME280;57508;43.086;0.136;2022-09-13T07:51:00;95053.03;;;32.23;36.29
70141;BME280;57508;43.086;0.136;2022-09-13T07:53:26;95044.91;;;31.52;37.94
70141;BME280;57508;43.086;0.136;2022-09-13T07:55:53;95039.63;;;32.16;36.75
70141;BME280;57508;43.086;0.136;2022-09-13T07:58:18;95034.28;;;32.44;35.36
70141;BME280;57508;43.086;0.136;2022-09-13T08:00:44;95028.69;;;32.79;34.28
70141;BME280;57508;43.086;0.136;2022-09-13T08:03:10;95038.03;;;33.01;32.81
70141;BME280;57508;43.086;0.136;2022-09-13T08:05:39;95038.34;;;32.62;34.09
70141;BME280;57508;43.086;0.136;2022-09-13T08:08:04;95038.88;;;33.39;33.46
70141;BME280;57508;43.086;0.136;2022-09-13T08:10:32;95045.28;;;33.54;32.17
70141;BME280;57508;43.086;0.136;2022-09-13T08:12:57;95039.22;;;34.16;32.16
70141;BME280;57508;43.086;0.136;2022-09-13T08:15:23;95027.28;;;34.38;31.49
70141;BME280;57508;43.086;0.136;2022-09-13T08:17:48;95023.22;;;34.57;31.89
70141;BME280;57508;43.086;0.136;2022-09-13T08:20:14;95037.25;;;34.69;32.92
70141;BME280;57508;43.086;0.136;2022-09-13T08:22:40;95032.81;;;34.71;31.84
70141;BME280;57508;43.086;0.136;2022-09-13T08:25:05;95024.44;;;34.56;32.79
70141;BME280;57508;43.086;0.136;2022-09-13T08:27:31;95004.56;;;34.80;32.55
70141;BME280;57508;43.086;0.136;2022-09-13T08:29:56;95015.19;;;34.88;33.57
70141;BME280;57508;43.086;0.136;2022-09-13T08:32:22;95037.50;;;34.09;33.71
70141;BME280;57508;43.086;0.136;2022-09-13T08:34:47;95037.09;;;33.92;32.96
70141;BME280;57508;43.086;0.136;2022-09-13T08:37:12;95041.31;;;34.30;31.36
70141;BME280;57508;43.086;0.136;2022-09-13T08:39:38;95046.22;;;34.69;33.12
70141;BME280;57508;43.086;0.136;2022-09-13T08:42:27;95049.19;;;34.90;31.43
70141;BME280;57508;43.086;0.136;2022-09-13T08:44:54;95057.03;;;34.73;31.97
70141;BME280;57508;43.086;0.136;2022-09-13T08:47:39;95069.63;;;34.27;33.56
70141;BME280;57508;43.086;0.136;2022-09-13T08:55:24;95070.63;;;35.01;32.45
70141;BME280;57508;43.086;0.136;2022-09-13T09:00:39;95078.19;;;35.16;33.93
70141;BME280;57508;43.086;0.136;2022-09-13T09:05:42;95096.53;;;35.00;33.29
70141;BME280;57508;43.086;0.136;2022-09-13T09:08:30;95089.16;;;34.82;33.91
70141;BME280;57508;43.086;0.136;2022-09-13T09:11:02;95082.66;;;34.70;33.78
70141;BME280;57508;43.086;0.136;2022-09-13T09:13:32;95095.94;;;34.96;33.45
70141;BME280;57508;43.086;0.136;2022-09-13T09:16:31;95089.91;;;34.82;33.98
70141;BME280;57508;43.086;0.136;2022-09-13T09:21:51;95083.47;;;34.95;33.75
70141;BME280;57508;43.086;0.136;2022-09-13T09:24:20;95091.97;;;33.41;36.61
70141;BME280;57508;43.086;0.136;2022-09-13T09:26:46;95093.25;;;34.15;35.30
70141;BME280;57508;43.086;0.136;2022-09-13T09:29:21;95084.03;;;34.65;34.31
70141;BME280;57508;43.086;0.136;2022-09-13T09:40:58;95102.25;;;34.16;32.72
70141;BME280;57508;43.086;0.136;2022-09-13T09:43:31;95098.69;;;34.43;32.47
70141;BME280;57508;43.086;0.136;2022-09-13T09:46:00;95092.97;;;34.84;31.29
70141;BME280;57508;43.086;0.136;2022-09-13T09:48:31;95091.63;;;34.61;31.73
70141;BME280;57508;43.086;0.136;2022-09-13T09:51:00;95100.63;;;34.71;32.11
70141;BME280;57508;43.086;0.136;2022-09-13T09:53:34;95103.09;;;34.69;32.86
70141;BME280;57508;43.086;0.136;2022-09-13T09:56:24;95064.59;;;34.88;32.29
70141;BME280;57508;43.086;0.136;2022-09-13T09:58:51;95066.53;;;35.30;33.81
70141;BME280;57508;43.086;0.136;2022-09-13T10:01:32;95065.50;;;35.67;32.23
70141;BME280;57508;43.086;0.136;2022-09-13T10:06:28;95054.72;;;36.33;32.02
70141;BME280;57508;43.086;0.136;2022-09-13T10:09:04;95047.19;;;36.64;31.61
70141;BME280;57508;43.086;0.136;2022-09-13T10:11:48;95053.84;;;36.57;30.33
70141;BME280;57508;43.086;0.136;2022-09-13T10:20:00;95039.41;;;36.78;29.25
70141;BME280;57508;43.086;0.136;2022-09-13T10:22:27;95045.41;;;36.76;28.54
70141;BME280;57508;43.086;0.136;2022-09-13T10:24:53;95057.41;;;36.94;28.22
70141;BME280;57508;43.086;0.136;2022-09-13T10:29:54;95060.28;;;38.09;27.92
70141;BME280;57508;43.086;0.136;2022-09-13T10:32:24;95062.22;;;38.88;23.41
70141;BME280;57508;43.086;0.136;2022-09-13T10:34:50;95059.72;;;40.07;23.23
70141;BME280;57508;43.086;0.136;2022-09-13T10:37:17;95061.13;;;41.51;20.97
70141;BME280;57508;43.086;0.136;2022-09-13T10:42:20;95061.16;;;42.97;16.65
70141;BME280;57508;43.086;0.136;2022-09-13T10:44:55;95063.41;;;42.37;15.38
70141;BME280;57508;43.086;0.136;2022-09-13T10:47:36;95057.94;;;41.89;16.45
70141;BME280;57508;43.086;0.136;2022-09-13T10:50:26;95060.19;;;41.90;17.02
70141;BME280;57508;43.086;0.136;2022-09-13T10:52:53;95061.78;;;42.16;18.16
70141;BME280;57508;43.086;0.136;2022-09-13T11:13:48;95046.25;;;45.62;12.19
70141;BME280;57508;43.086;0.136;2022-09-13T11:16:39;95059.28;;;44.59;12.95
70141;BME280;57508;43.086;0.136;2022-09-13T11:19:38;95059.88;;;44.06;13.52
70141;BME280;57508;43.086;0.136;2022-09-13T11:30:35;95032.44;;;42.58;13.82
70141;BME280;57508;43.086;0.136;2022-09-13T11:38:48;95039.53;;;41.86;14.34
70141;BME280;57508;43.086;0.136;2022-09-13T11:49:52;95034.94;;;42.31;14.11
70141;BME280;57508;43.086;0.136;2022-09-13T11:55:36;95049.94;;;43.72;13.65
70141;BME280;57508;43.086;0.136;2022-09-13T11:58:05;95048.69;;;42.78;14.00
70141;BME280;57508;43.086;0.136;2022-09-13T12:00:42;95062.13;;;43.49;13.78
70141;BME280;57508;43.086;0.136;2022-09-13T12:03:56;95063.16;;;43.21;13.20
70141;BME280;57508;43.086;0.136;2022-09-13T12:06:32;95072.44;;;41.53;13.51
70141;BME280;57508;43.086;0.136;2022-09-13T12:09:04;95057.63;;;41.39;13.93
70141;BME280;57508;43.086;0.136;2022-09-13T12:11:38;95056.94;;;41.75;14.33
70141;BME280;57508;43.086;0.136;2022-09-13T12:14:11;95040.81;;;41.85;12.98
70141;BME280;57508;43.086;0.136;2022-09-13T12:16:41;95050.69;;;43.28;12.77
70141;BME280;57508;43.086;0.136;2022-09-13T12:19:16;95039.50;;;44.30;12.89
70141;BME280;57508;43.086;0.136;2022-09-13T12:21:45;95031.91;;;44.77;11.84
70141;BME280;57508;43.086;0.136;2022-09-13T12:27:12;95028.69;;;44.73;12.36
70141;BME280;57508;43.086;0.136;2022-09-13T12:29:53;95033.00;;;42.81;12.50
70141;BME280;57508;43.086;0.136;2022-09-13T12:32:20;95029.19;;;43.09;12.50
70141;BME280;57508;43.086;0.136;2022-09-13T12:34:53;95027.69;;;44.10;11.74
70141;BME280;57508;43.086;0.136;2022-09-13T13:05:00;95023.16;;;41.23;14.63
70141;BME280;57508;43.086;0.136;2022-09-13T13:07:27;95023.13;;;41.34;14.57
70141;BME280;57508;43.086;0.136;2022-09-13T13:09:56;95030.41;;;42.33;15.13
70141;BME280;57508;43.086;0.136;2022-09-13T13:12:31;95015.16;;;43.21;14.21
70141;BME280;57508;43.086;0.136;2022-09-13T13:15:00;95007.53;;;43.46;13.93
70141;BME280;57508;43.086;0.136;2022-09-13T13:20:44;94994.81;;;44.55;12.59
70141;BME280;57508;43.086;0.136;2022-09-13T13:23:33;94994.59;;;43.87;13.74
70141;BME280;57508;43.086;0.136;2022-09-13T13:34:02;94955.31;;;43.39;12.88
70141;BME280;57508;43.086;0.136;2022-09-13T13:38:57;94950.59;;;42.70;13.16
70141;BME280;57508;43.086;0.136;2022-09-13T13:44:01;94952.91;;;42.05;14.84
70141;BME280;57508;43.086;0.136;2022-09-13T13:46:31;94954.91;;;42.40;14.97
70141;BME280;57508;43.086;0.136;2022-09-13T13:57:33;94941.16;;;43.75;14.83
70141;BME280;57508;43.086;0.136;2022-09-13T14:00:18;94935.44;;;43.54;14.15
70141;BME280;57508;43.086;0.136;2022-09-13T14:02:49;94936.22;;;43.49;15.14
70141;BME280;57508;43.086;0.136;2022-09-13T14:11:12;94942.56;;;42.86;15.06
70141;BME280;57508;43.086;0.136;2022-09-13T14:24:46;94932.38;;;42.44;15.59
70141;BME280;57508;43.086;0.136;2022-09-13T14:27:30;94924.06;;;42.44;16.35
70141;BME280;57508;43.086;0.136;2022-09-13T14:30:00;94925.28;;;42.49;16.08
70141;BME280;57508;43.086;0.136;2022-09-13T14:32:31;94923.94;;;42.31;15.44
70141;BME280;57508;43.086;0.136;2022-09-13T14:35:25;94922.34;;;42.10;15.92
70141;BME280;57508;43.086;0.136;2022-09-13T14:37:50;94925.38;;;41.82;16.49
70141;BME280;57508;43.086;0.136;2022-09-13T14:40:22;94918.69;;;41.60;17.18
70141;BME280;57508;43.086;0.136;2022-09-13T14:42:49;94916.09;;;41.68;16.59
70141;BME280;57508;43.086;0.136;2022-09-13T14:45:29;94923.19;;;41.63;18.80
70141;BME280;57508;43.086;0.136;2022-09-13T14:47:58;94924.53;;;41.50;19.17
70141;BME280;57508;43.086;0.136;2022-09-13T14:50:28;94913.56;;;41.27;19.91
70141;BME280;57508;43.086;0.136;2022-09-13T14:53:06;94921.00;;;41.02;18.29
70141;BME280;57508;43.086;0.136;2022-09-13T14:55:41;94924.13;;;40.70;18.90
70141;BME280;57508;43.086;0.136;2022-09-13T14:58:14;94942.06;;;40.23;18.24
70141;BME280;57508;43.086;0.136;2022-09-13T15:00:49;94955.78;;;39.54;19.83
70141;BME280;57508;43.086;0.136;2022-09-13T15:03:16;94945.25;;;39.58;21.22
70141;BME280;57508;43.086;0.136;2022-09-13T15:05:50;94949.84;;;39.84;20.00
70141;BME280;57508;43.086;0.136;2022-09-13T15:10:58;94981.88;;;38.86;21.70
70141;BME280;57508;43.086;0.136;2022-09-13T15:13:25;94979.34;;;38.45;21.08
70141;BME280;57508;43.086;0.136;2022-09-13T15:15:51;94958.81;;;38.90;22.05
70141;BME280;57508;43.086;0.136;2022-09-13T15:20:59;94982.31;;;38.68;22.30
70141;BME280;57508;43.086;0.136;2022-09-13T15:23:39;94980.63;;;38.44;23.71
70141;BME280;57508;43.086;0.136;2022-09-13T15:28:54;94981.88;;;38.43;24.04
70141;BME280;57508;43.086;0.136;2022-09-13T15:31:28;94995.31;;;38.03;22.83
70141;BME280;57508;43.086;0.136;2022-09-13T15:36:42;94986.34;;;38.08;24.56
70141;BME280;57508;43.086;0.136;2022-09-13T15:41:39;94999.66;;;37.83;24.80
70141;BME280;57508;43.086;0.136;2022-09-13T15:44:07;94993.47;;;36.33;22.43
70141;BME280;57508;43.086;0.136;2022-09-13T15:46:54;94987.69;;;34.72;21.31
70141;BME280;57508;43.086;0.136;2022-09-13T15:49:22;95005.13;;;33.51;23.22
70141;BME280;57508;43.086;0.136;2022-09-13T15:51:54;94958.81;;;32.88;24.13
70141;BME280;57508;43.086;0.136;2022-09-13T15:54:20;94950.00;;;33.96;24.34
70141;BME280;57508;43.086;0.136;2022-09-13T15:56:48;94976.25;;;33.60;26.53
70141;BME280;57508;43.086;0.136;2022-09-13T15:59:19;94976.34;;;33.56;24.78
70141;BME280;57508;43.086;0.136;2022-09-13T16:01:47;94994.47;;;33.91;24.77
70141;BME280;57508;43.086;0.136;2022-09-13T16:04:14;94999.50;;;33.92;24.71
70141;BME280;57508;43.086;0.136;2022-09-13T16:06:39;95009.63;;;34.11;23.66
70141;BME280;57508;43.086;0.136;2022-09-13T16:09:25;95013.16;;;34.11;24.89
70141;BME280;57508;43.086;0.136;2022-09-13T16:11:51;95029.19;;;33.94;24.96
70141;BME280;57508;43.086;0.136;2022-09-13T16:14:17;95021.38;;;34.11;24.75
70141;BME280;57508;43.086;0.136;2022-09-13T16:16:43;95022.25;;;34.36;24.05
70141;BME280;57508;43.086;0.136;2022-09-13T16:19:17;95030.09;;;33.44;27.66
70141;BME280;57508;43.086;0.136;2022-09-13T16:21:43;95028.81;;;33.17;28.19
70141;BME280;57508;43.086;0.136;2022-09-13T16:24:09;95040.41;;;32.80;27.57
70141;BME280;57508;43.086;0.136;2022-09-13T16:26:34;95022.91;;;32.14;30.14
70141;BME280;57508;43.086;0.136;2022-09-13T16:29:00;95038.56;;;32.77;29.19
70141;BME280;57508;43.086;0.136;2022-09-13T16:31:26;95042.41;;;32.25;29.34
70141;BME280;57508;43.086;0.136;2022-09-13T16:33:51;95050.19;;;32.58;28.90
70141;BME280;57508;43.086;0.136;2022-09-13T16:36:16;95053.94;;;32.83;28.79
70141;BME280;57508;43.086;0.136;2022-09-13T16:38:42;95045.97;;;32.67;29.23
70141;BME280;57508;43.086;0.136;2022-09-13T16:41:08;95042.34;;;32.70;29.06
70141;BME280;57508;43.086;0.136;2022-09-13T16:43:33;95038.59;;;32.86;29.56
70141;BME280;57508;43.086;0.136;2022-09-13T16:46:05;95036.97;;;32.98;30.05
70141;BME280;57508;43.086;0.136;2022-09-13T16:48:31;95023.13;;;33.02;29.38
70141;BME280;57508;43.086;0.136;2022-09-13T16:51:09;95019.06;;;33.06;29.55
70141;BME280;57508;43.086;0.136;2022-09-13T16:53:38;95009.09;;;33.60;28.07
70141;BME280;57508;43.086;0.136;2022-09-13T16:56:21;95004.81;;;32.39;29.72